CYED/YED METAR and TAF weather

Enter ICAO airport designator
Station Type Date Time Source
CYED METAR 2018/07/13 09:05 UTC NOAA

CYED 130905Z AUTO 30008G15KT 2SM RA FEW016 BKN064 BKN095 14/14 A3007 RMK VSBY VRBL 1.0V9.0


Station Type Date Time Source
CYED Decoded METAR 2018/07/13 09:05 UTC NOAA

Edmonton Namao Alta., Canada (CYED) 53-40N 113-28W 688M
Jul 13, 2018 - 05:05 AM EDT / 2018.07.13 0905 UTC
Wind: from the WNW (300 degrees) at 9 MPH (8 KT) gusting to 17 MPH (15 KT):0
Visibility: 2 mile(s):0
Sky conditions: mostly cloudy
Weather: rain
Temperature: 57 F (14 C)
Dew Point: 57 F (14 C)
Relative Humidity: 100%
Pressure (altimeter): 30.07 in. Hg (1018 hPa)
ob: CYED 130905Z AUTO 30008G15KT 2SM RA FEW016 BKN064 BKN095 14/14 A3007 RMK VSBY VRBL 1.0V9.0
cycle: 9

Station Type Date Time Source
CYED TAF 2018/07/19 06:33 UTC NOAA

TAF TAF CYED 190530Z 1906/1918 FCST NOT AVBL DUE NO OBS
RMK NXT FCST BY 191200Z


Example: see airport list